createdAt,value
2022-11-17T00:00:09.844Z,673.86
2022-11-17T00:00:19.843Z,673.88
2022-11-17T00:00:29.840Z,673.86
2022-11-17T00:00:39.845Z,673.96
2022-11-17T00:00:49.848Z,673.92
2022-11-17T00:00:59.847Z,673.97
2022-11-17T00:01:09.851Z,674.00
2022-11-17T00:01:19.857Z,674.01
2022-11-17T00:01:29.851Z,674.12
2022-11-17T00:01:39.850Z,674.13
2022-11-17T00:01:49.851Z,674.12
2022-11-17T00:01:59.889Z,674.21
2022-11-17T00:02:09.890Z,674.23
2022-11-17T00:02:19.934Z,674.16
2022-11-17T00:02:29.920Z,674.23
2022-11-17T00:02:39.926Z,674.21
2022-11-17T00:02:49.911Z,674.30
2022-11-17T00:02:59.854Z,674.30
2022-11-17T00:03:09.856Z,674.28
2022-11-17T00:03:19.855Z,674.37
2022-11-17T00:03:29.861Z,674.35
2022-11-17T00:03:39.856Z,674.33
2022-11-17T00:03:49.858Z,674.34
2022-11-17T00:03:59.858Z,674.42
2022-11-17T00:04:09.858Z,674.52
2022-11-17T00:04:19.846Z,674.52
2022-11-17T00:04:29.866Z,674.55
2022-11-17T00:04:39.861Z,674.62
2022-11-17T00:04:49.860Z,674.65
2022-11-17T00:04:59.862Z,674.73
2022-11-17T00:05:09.861Z,674.68
2022-11-17T00:05:19.878Z,674.73
2022-11-17T00:05:29.863Z,674.77
2022-11-17T00:05:39.864Z,674.74
2022-11-17T00:05:49.867Z,674.77
2022-11-17T00:05:59.869Z,674.79
2022-11-17T00:06:09.871Z,674.94
2022-11-17T00:06:19.924Z,674.95
2022-11-17T00:06:29.870Z,674.99
2022-11-17T00:06:39.871Z,674.97
2022-11-17T00:06:49.925Z,675.05
2022-11-17T00:06:59.906Z,675.03
2022-11-17T00:07:09.917Z,675.01
2022-11-17T00:07:19.933Z,675.01
2022-11-17T00:07:29.944Z,674.99
2022-11-17T00:07:39.873Z,675.00
2022-11-17T00:07:49.879Z,675.10
2022-11-17T00:07:59.874Z,675.10
2022-11-17T00:08:09.879Z,675.09
2022-11-17T00:08:19.876Z,675.09
2022-11-17T00:08:29.878Z,675.12
2022-11-17T00:08:39.878Z,675.15
2022-11-17T00:08:49.880Z,675.06
2022-11-17T00:08:59.885Z,675.08
2022-11-17T00:09:09.884Z,675.08
2022-11-17T00:09:19.883Z,675.03
2022-11-17T00:09:29.880Z,675.12
2022-11-17T00:09:39.882Z,675.14
2022-11-17T00:09:49.888Z,675.05
2022-11-17T00:09:59.885Z,675.13
2022-11-17T00:10:09.885Z,675.12
2022-11-17T00:10:19.886Z,675.22
2022-11-17T00:10:29.887Z,675.16
2022-11-17T00:10:39.890Z,675.16
2022-11-17T00:10:49.876Z,674.99
2022-11-17T00:10:59.889Z,675.00
2022-11-17T00:11:09.891Z,674.95
2022-11-17T00:11:19.890Z,674.93
2022-11-17T00:11:29.892Z,674.96
2022-11-17T00:11:39.889Z,674.99
2022-11-17T00:11:49.894Z,675.01
2022-11-17T00:11:59.892Z,674.98
2022-11-17T00:12:09.894Z,675.09
2022-11-17T00:12:22.692Z,675.07
2022-11-17T00:12:32.799Z,675.14
2022-11-17T00:12:39.897Z,675.21
2022-11-17T00:12:49.895Z,675.23
2022-11-17T00:12:59.897Z,675.30
2022-11-17T00:13:09.897Z,675.38
2022-11-17T00:13:19.901Z,675.42
2022-11-17T00:13:29.903Z,675.44
2022-11-17T00:13:39.905Z,675.42
2022-11-17T00:13:49.900Z,675.44
2022-11-17T00:13:59.904Z,675.52
2022-11-17T00:14:09.903Z,675.57
2022-11-17T00:14:19.906Z,675.68
2022-11-17T00:14:29.903Z,675.73
2022-11-17T00:14:39.906Z,675.74
2022-11-17T00:14:49.923Z,675.80
2022-11-17T00:14:59.906Z,675.74
2022-11-17T00:15:09.907Z,675.83
2022-11-17T00:15:19.908Z,675.80
2022-11-17T00:15:29.917Z,675.90
2022-11-17T00:15:39.921Z,675.91
2022-11-17T00:15:49.907Z,675.93
2022-11-17T00:15:59.912Z,675.94
2022-11-17T00:16:09.910Z,675.93
2022-11-17T00:16:19.914Z,675.88
2022-11-17T00:16:29.921Z,675.91
2022-11-17T00:16:39.912Z,675.82
2022-11-17T00:16:49.918Z,675.77
2022-11-17T00:16:59.900Z,675.74
2022-11-17T00:17:09.913Z,675.71
2022-11-17T00:17:19.915Z,675.66
2022-11-17T00:17:29.922Z,675.63
2022-11-17T00:17:39.918Z,675.55
2022-11-17T00:17:49.919Z,675.47
2022-11-17T00:17:59.918Z,675.51
2022-11-17T00:18:09.917Z,675.51
2022-11-17T00:18:19.919Z,675.42
2022-11-17T00:18:29.923Z,675.39
2022-11-17T00:18:39.925Z,675.46
2022-11-17T00:18:49.923Z,675.51
2022-11-17T00:18:59.935Z,675.63
2022-11-17T00:19:09.924Z,675.64
2022-11-17T00:19:19.923Z,675.60
2022-11-17T00:19:29.927Z,675.57
2022-11-17T00:19:39.926Z,675.68
2022-11-17T00:19:49.927Z,675.65
2022-11-17T00:19:59.929Z,675.72
2022-11-17T00:20:09.927Z,675.73
2022-11-17T00:20:19.933Z,675.81
2022-11-17T00:20:29.929Z,675.79
2022-11-17T00:20:39.931Z,675.86
2022-11-17T00:20:49.930Z,675.87
2022-11-17T00:20:59.931Z,675.90
2022-11-17T00:21:09.956Z,675.91
2022-11-17T00:21:19.965Z,675.97
2022-11-17T00:21:29.938Z,676.10
2022-11-17T00:21:39.932Z,676.09
2022-11-17T00:21:49.935Z,676.12
2022-11-17T00:21:59.939Z,676.07
2022-11-17T00:22:09.936Z,676.14
2022-11-17T00:22:19.938Z,676.12
2022-11-17T00:22:29.937Z,676.23
2022-11-17T00:22:39.940Z,676.22
2022-11-17T00:22:49.942Z,676.23
2022-11-17T00:22:59.943Z,676.33
2022-11-17T00:23:09.943Z,676.36
2022-11-17T00:23:19.951Z,676.41
2022-11-17T00:23:29.944Z,676.40
2022-11-17T00:23:39.946Z,676.47
2022-11-17T00:23:50.405Z,676.49
2022-11-17T00:23:59.946Z,676.49
2022-11-17T00:24:09.946Z,676.65
2022-11-17T00:24:19.947Z,676.63
2022-11-17T00:24:29.948Z,676.63
2022-11-17T00:24:39.949Z,676.68
2022-11-17T00:24:49.947Z,676.69
2022-11-17T00:24:59.950Z,676.68
2022-11-17T00:25:09.947Z,676.77
2022-11-17T00:25:19.950Z,676.81
2022-11-17T00:25:29.973Z,676.88
2022-11-17T00:25:39.950Z,676.86
2022-11-17T00:25:49.955Z,676.81
2022-11-17T00:25:59.949Z,676.82
2022-11-17T00:26:09.951Z,676.80
2022-11-17T00:26:19.953Z,676.74
2022-11-17T00:26:29.952Z,676.65
2022-11-17T00:26:39.954Z,676.66
2022-11-17T00:26:49.955Z,676.60
2022-11-17T00:26:59.958Z,676.52
2022-11-17T00:27:09.958Z,676.53
2022-11-17T00:27:19.955Z,676.49
2022-11-17T00:27:29.966Z,676.41
2022-11-17T00:27:39.957Z,676.45
2022-11-17T00:27:49.960Z,676.41
2022-11-17T00:27:59.967Z,676.33
2022-11-17T00:28:09.966Z,676.30
2022-11-17T00:28:19.961Z,676.22
2022-11-17T00:28:29.963Z,676.24
2022-11-17T00:28:39.967Z,676.16
2022-11-17T00:28:49.962Z,676.18
2022-11-17T00:28:59.976Z,676.18
2022-11-17T00:29:09.967Z,676.25
2022-11-17T00:29:19.965Z,676.26
2022-11-17T00:29:29.974Z,676.25
2022-11-17T00:29:39.968Z,676.29
2022-11-17T00:29:49.966Z,676.26
2022-11-17T00:29:59.976Z,676.37
2022-11-17T00:30:09.970Z,676.39
2022-11-17T00:30:19.956Z,676.39
2022-11-17T00:30:30.015Z,676.42
2022-11-17T00:30:43.741Z,676.42
2022-11-17T00:30:49.973Z,676.51
2022-11-17T00:30:59.966Z,676.51
2022-11-17T00:31:09.973Z,676.51
2022-11-17T00:31:19.979Z,676.62
2022-11-17T00:31:29.973Z,676.71
2022-11-17T00:31:39.978Z,676.77
2022-11-17T00:31:49.975Z,676.79
2022-11-17T00:31:59.976Z,676.97
2022-11-17T00:32:09.980Z,677.04
2022-11-17T00:32:19.979Z,677.09
2022-11-17T00:32:29.982Z,677.15
2022-11-17T00:32:39.983Z,677.20
2022-11-17T00:32:49.984Z,677.33
2022-11-17T00:32:59.984Z,677.43
2022-11-17T00:33:09.987Z,677.43
2022-11-17T00:33:19.984Z,677.57
2022-11-17T00:33:29.983Z,677.54
2022-11-17T00:33:39.989Z,677.59
2022-11-17T00:33:49.989Z,677.73
2022-11-17T00:33:59.999Z,677.77
2022-11-17T00:34:09.987Z,677.82
2022-11-17T00:34:19.987Z,677.94
2022-11-17T00:34:29.988Z,678.01
2022-11-17T00:34:39.994Z,678.04
2022-11-17T00:34:49.990Z,678.07
2022-11-17T00:34:59.992Z,678.08
2022-11-17T00:35:10.010Z,678.06
2022-11-17T00:35:19.992Z,678.15
2022-11-17T00:35:29.995Z,678.20
2022-11-17T00:35:39.996Z,678.22
2022-11-17T00:35:49.996Z,678.20
2022-11-17T00:35:59.997Z,678.29
2022-11-17T00:36:09.999Z,678.27
2022-11-17T00:36:19.997Z,678.40
2022-11-17T00:36:29.996Z,678.39
2022-11-17T00:36:40.035Z,678.37
2022-11-17T00:36:50.007Z,678.34
2022-11-17T00:37:00.005Z,678.31
2022-11-17T00:37:10.000Z,678.28
2022-11-17T00:37:20.000Z,678.40
2022-11-17T00:37:30.004Z,678.36
2022-11-17T00:37:40.005Z,678.41
2022-11-17T00:37:50.005Z,678.36
2022-11-17T00:38:00.003Z,678.32
2022-11-17T00:38:10.006Z,678.43
2022-11-17T00:38:20.004Z,678.46
2022-11-17T00:38:30.003Z,678.53
2022-11-17T00:38:40.006Z,678.54
2022-11-17T00:38:50.012Z,678.51
2022-11-17T00:39:00.019Z,678.55
2022-11-17T00:39:10.009Z,678.53
2022-11-17T00:39:20.006Z,678.54
2022-11-17T00:39:30.010Z,678.61
2022-11-17T00:39:40.006Z,678.61
2022-11-17T00:39:50.019Z,678.54
2022-11-17T00:40:01.168Z,678.64
2022-11-17T00:40:10.009Z,678.65
2022-11-17T00:40:20.008Z,678.59
2022-11-17T00:40:30.012Z,678.55
2022-11-17T00:40:40.013Z,678.63
2022-11-17T00:40:50.011Z,678.63
2022-11-17T00:41:00.011Z,678.66
2022-11-17T00:41:10.013Z,678.69
2022-11-17T00:41:20.015Z,678.65
2022-11-17T00:41:30.017Z,678.76
2022-11-17T00:41:40.019Z,678.72
2022-11-17T00:41:50.033Z,678.85
2022-11-17T00:41:59.999Z,678.85
2022-11-17T00:42:10.021Z,678.93
2022-11-17T00:42:20.021Z,678.97
2022-11-17T00:42:30.017Z,678.96
2022-11-17T00:42:40.030Z,679.09
2022-11-17T00:42:50.027Z,679.07
2022-11-17T00:43:00.033Z,679.12
2022-11-17T00:43:10.020Z,679.10
2022-11-17T00:43:20.034Z,679.05
2022-11-17T00:43:30.021Z,679.10
2022-11-17T00:43:40.021Z,679.14
2022-11-17T00:43:50.036Z,679.15
2022-11-17T00:44:00.062Z,679.27
2022-11-17T00:44:10.530Z,679.34
2022-11-17T00:44:20.029Z,679.39
2022-11-17T00:44:30.028Z,679.48
2022-11-17T00:44:40.027Z,679.45
2022-11-17T00:44:50.045Z,679.41
2022-11-17T00:45:00.034Z,679.39
2022-11-17T00:45:10.032Z,679.38
2022-11-17T00:45:20.046Z,679.45
2022-11-17T00:45:30.039Z,679.44
2022-11-17T00:45:40.030Z,679.47
2022-11-17T00:45:50.035Z,679.49
2022-11-17T00:46:00.037Z,679.49
2022-11-17T00:46:10.034Z,679.49
2022-11-17T00:46:20.043Z,679.48
2022-11-17T00:46:30.046Z,679.43
2022-11-17T00:46:40.040Z,679.45
2022-11-17T00:46:50.049Z,679.36
2022-11-17T00:47:00.037Z,679.31
2022-11-17T00:47:10.041Z,679.38
2022-11-17T00:47:20.041Z,679.31
2022-11-17T00:47:30.044Z,679.29
2022-11-17T00:47:40.041Z,679.35
2022-11-17T00:47:50.046Z,679.35
2022-11-17T00:48:00.048Z,679.27
2022-11-17T00:48:10.047Z,679.35
2022-11-17T00:48:20.045Z,679.39
2022-11-17T00:48:30.040Z,679.40
2022-11-17T00:48:40.044Z,679.36
2022-11-17T00:48:50.046Z,679.40
2022-11-17T00:49:00.067Z,679.46
2022-11-17T00:49:10.047Z,679.48
2022-11-17T00:49:20.050Z,679.50
2022-11-17T00:49:30.036Z,679.48
2022-11-17T00:49:40.045Z,679.49
2022-11-17T00:49:50.053Z,679.49
2022-11-17T00:50:00.073Z,679.52
2022-11-17T00:50:10.053Z,679.50
2022-11-17T00:50:20.052Z,679.50
2022-11-17T00:50:30.050Z,679.51
2022-11-17T00:50:40.048Z,679.59
2022-11-17T00:50:50.055Z,679.56
2022-11-17T00:51:00.054Z,679.61
2022-11-17T00:51:10.066Z,679.61
2022-11-17T00:51:20.054Z,679.68
2022-11-17T00:51:30.059Z,679.78
2022-11-17T00:51:40.058Z,679.73
2022-11-17T00:51:50.057Z,679.83
2022-11-17T00:52:00.058Z,679.78
2022-11-17T00:52:10.059Z,679.88
2022-11-17T00:52:20.058Z,679.92
2022-11-17T00:52:30.061Z,679.95
2022-11-17T00:52:40.064Z,679.97
2022-11-17T00:52:50.064Z,680.01
2022-11-17T00:53:00.065Z,680.05
2022-11-17T00:53:10.063Z,680.08
2022-11-17T00:53:20.061Z,680.16
2022-11-17T00:53:30.063Z,680.27
2022-11-17T00:53:40.065Z,680.31
2022-11-17T00:53:50.072Z,680.30
2022-11-17T00:54:00.116Z,680.36
2022-11-17T00:54:10.071Z,680.33
2022-11-17T00:54:20.069Z,680.35
2022-11-17T00:54:30.069Z,680.38
2022-11-17T00:54:40.072Z,680.38
2022-11-17T00:54:50.075Z,680.44
2022-11-17T00:55:00.113Z,680.45
2022-11-17T00:55:10.104Z,680.46
2022-11-17T00:55:20.124Z,680.51
2022-11-17T00:55:30.175Z,680.61
2022-11-17T00:55:40.121Z,680.62
2022-11-17T00:55:50.220Z,680.53
2022-11-17T00:56:00.075Z,680.59
2022-11-17T00:56:10.106Z,680.49
2022-11-17T00:56:20.078Z,680.41
2022-11-17T00:56:30.077Z,680.37
2022-11-17T00:56:40.084Z,680.44
2022-11-17T00:56:50.080Z,680.45
2022-11-17T00:57:00.088Z,680.46
2022-11-17T00:57:10.069Z,680.46
2022-11-17T00:57:20.085Z,680.39
2022-11-17T00:57:30.086Z,680.41
2022-11-17T00:57:40.092Z,680.34
2022-11-17T00:57:50.086Z,680.34
2022-11-17T00:58:00.101Z,680.41
2022-11-17T00:58:10.091Z,680.36
2022-11-17T00:58:20.088Z,680.44
2022-11-17T00:58:30.090Z,680.57
2022-11-17T00:58:40.091Z,680.62
2022-11-17T00:58:50.092Z,680.57
2022-11-17T00:59:00.097Z,680.48
2022-11-17T00:59:10.096Z,680.51
2022-11-17T00:59:20.092Z,680.56
2022-11-17T00:59:30.094Z,680.60
2022-11-17T00:59:40.103Z,680.60
2022-11-17T00:59:50.093Z,680.63
2022-11-17T01:00:00.125Z,680.81
2022-11-17T01:00:10.103Z,680.82
2022-11-17T01:00:20.098Z,680.78
2022-11-17T01:00:30.097Z,680.84
2022-11-17T01:00:40.103Z,680.85
2022-11-17T01:00:50.124Z,680.88
2022-11-17T01:01:00.099Z,680.88
2022-11-17T01:01:10.144Z,680.87
2022-11-17T01:01:20.213Z,680.83
2022-11-17T01:01:30.228Z,680.81
2022-11-17T01:01:40.182Z,680.85
2022-11-17T01:01:50.193Z,680.81
2022-11-17T01:02:00.230Z,680.75
2022-11-17T01:02:10.090Z,680.85
2022-11-17T01:02:20.104Z,680.83
2022-11-17T01:02:30.106Z,680.84
2022-11-17T01:02:40.103Z,680.78
2022-11-17T01:02:50.103Z,680.83
2022-11-17T01:03:00.112Z,680.84
2022-11-17T01:03:10.106Z,680.86
2022-11-17T01:03:20.109Z,680.79
2022-11-17T01:03:30.109Z,680.81
2022-11-17T01:03:40.110Z,680.77
2022-11-17T01:03:50.113Z,680.81
2022-11-17T01:04:00.111Z,680.71
2022-11-17T01:04:10.114Z,680.78
2022-11-17T01:04:20.115Z,680.75
2022-11-17T01:04:30.116Z,680.68
2022-11-17T01:04:40.112Z,680.70
2022-11-17T01:04:50.114Z,680.70
2022-11-17T01:05:00.125Z,680.70
2022-11-17T01:05:10.114Z,680.69
2022-11-17T01:05:20.119Z,680.80
2022-11-17T01:05:33.065Z,680.89
2022-11-17T01:05:40.118Z,680.90
2022-11-17T01:05:50.120Z,680.89
2022-11-17T01:06:00.116Z,680.86
2022-11-17T01:06:10.120Z,681.02
2022-11-17T01:06:20.152Z,680.99
2022-11-17T01:06:30.120Z,680.99
2022-11-17T01:06:40.121Z,681.09
2022-11-17T01:06:50.199Z,681.02
2022-11-17T01:07:00.215Z,681.10
2022-11-17T01:07:10.144Z,681.12
2022-11-17T01:07:20.169Z,681.10
2022-11-17T01:07:30.218Z,681.12
2022-11-17T01:07:40.170Z,681.11
2022-11-17T01:07:50.131Z,681.20
2022-11-17T01:08:00.126Z,681.24
2022-11-17T01:08:10.128Z,681.26
2022-11-17T01:08:20.126Z,681.26
2022-11-17T01:08:30.127Z,681.33
2022-11-17T01:08:40.127Z,681.46
2022-11-17T01:08:50.136Z,681.45
2022-11-17T01:09:00.129Z,681.44
2022-11-17T01:09:10.133Z,681.42
2022-11-17T01:09:20.131Z,681.42
2022-11-17T01:09:30.130Z,681.52
2022-11-17T01:09:40.130Z,681.52
2022-11-17T01:09:50.133Z,681.57
2022-11-17T01:10:00.155Z,681.66
2022-11-17T01:10:10.133Z,681.70
2022-11-17T01:10:20.135Z,681.79
2022-11-17T01:10:30.134Z,681.82
2022-11-17T01:10:40.141Z,681.87
2022-11-17T01:10:50.136Z,681.89
2022-11-17T01:11:00.140Z,681.82
2022-11-17T01:11:10.138Z,681.80
2022-11-17T01:11:20.135Z,681.77
2022-11-17T01:11:30.145Z,681.72
2022-11-17T01:11:40.140Z,681.90
2022-11-17T01:11:50.142Z,681.83
2022-11-17T01:12:00.143Z,681.95
2022-11-17T01:12:10.146Z,681.96
2022-11-17T01:12:20.144Z,682.06
2022-11-17T01:12:30.151Z,682.11
2022-11-17T01:12:40.150Z,682.06
2022-11-17T01:12:50.145Z,682.16
2022-11-17T01:13:00.149Z,682.20
2022-11-17T01:13:10.145Z,682.22
2022-11-17T01:13:20.149Z,682.33
2022-11-17T01:13:30.151Z,682.32
2022-11-17T01:13:40.164Z,682.31
2022-11-17T01:13:50.157Z,682.33
2022-11-17T01:14:00.153Z,682.34
2022-11-17T01:14:10.151Z,682.34
2022-11-17T01:14:20.153Z,682.25
2022-11-17T01:14:30.157Z,682.35
2022-11-17T01:14:40.145Z,682.35
2022-11-17T01:14:50.143Z,682.32
2022-11-17T01:15:00.163Z,682.36
2022-11-17T01:15:10.161Z,682.41
2022-11-17T01:15:20.154Z,682.45
2022-11-17T01:15:30.157Z,682.48
2022-11-17T01:15:40.158Z,682.51
2022-11-17T01:15:50.157Z,682.58
2022-11-17T01:16:00.159Z,682.56
2022-11-17T01:16:11.039Z,682.55
2022-11-17T01:16:20.162Z,682.48
2022-11-17T01:16:30.159Z,682.43
2022-11-17T01:16:40.162Z,682.44
2022-11-17T01:16:50.159Z,682.58
2022-11-17T01:17:00.163Z,682.64
2022-11-17T01:17:10.159Z,682.69
2022-11-17T01:17:20.189Z,682.78
2022-11-17T01:17:30.164Z,682.65
2022-11-17T01:17:40.166Z,682.68
2022-11-17T01:17:50.165Z,682.60
2022-11-17T01:18:00.163Z,682.54
2022-11-17T01:18:10.164Z,682.59
2022-11-17T01:18:20.166Z,682.52
2022-11-17T01:18:30.167Z,682.47
2022-11-17T01:18:40.168Z,682.51
2022-11-17T01:18:50.168Z,682.44
2022-11-17T01:19:00.168Z,682.37
2022-11-17T01:19:10.232Z,682.39
2022-11-17T01:19:20.170Z,682.29
2022-11-17T01:19:30.170Z,682.38
2022-11-17T01:19:40.158Z,682.38
2022-11-17T01:19:50.177Z,682.28
2022-11-17T01:20:00.183Z,682.25
2022-11-17T01:20:10.174Z,682.33
2022-11-17T01:20:20.172Z,682.32
2022-11-17T01:20:30.174Z,682.30
2022-11-17T01:20:40.175Z,682.38
2022-11-17T01:20:50.178Z,682.39
2022-11-17T01:21:00.177Z,682.35
2022-11-17T01:21:10.178Z,682.49
2022-11-17T01:21:20.179Z,682.56
2022-11-17T01:21:30.179Z,682.56
2022-11-17T01:21:40.180Z,682.64
2022-11-17T01:21:50.183Z,682.61
2022-11-17T01:22:00.183Z,682.68
2022-11-17T01:22:10.182Z,682.66
2022-11-17T01:22:20.184Z,682.68
2022-11-17T01:22:30.186Z,682.76
2022-11-17T01:22:40.189Z,682.71
2022-11-17T01:22:50.188Z,682.83
2022-11-17T01:23:00.184Z,682.88
2022-11-17T01:23:10.191Z,682.83
2022-11-17T01:23:20.186Z,682.84
2022-11-17T01:23:30.188Z,682.88
2022-11-17T01:23:40.189Z,682.93
2022-11-17T01:23:50.185Z,682.87
2022-11-17T01:24:00.191Z,682.82
2022-11-17T01:24:10.197Z,682.83
2022-11-17T01:24:20.189Z,682.89
2022-11-17T01:24:30.191Z,682.97
2022-11-17T01:24:40.192Z,682.90
2022-11-17T01:24:50.192Z,682.87
2022-11-17T01:25:00.291Z,682.86
2022-11-17T01:25:10.201Z,682.93
2022-11-17T01:25:20.197Z,682.87
2022-11-17T01:25:30.196Z,682.86
2022-11-17T01:25:40.198Z,682.99
2022-11-17T01:25:50.199Z,683.09
2022-11-17T01:26:00.198Z,683.09
2022-11-17T01:26:10.200Z,683.05
2022-11-17T01:26:20.202Z,683.09
2022-11-17T01:26:30.202Z,682.98
2022-11-17T01:26:40.202Z,682.96
2022-11-17T01:26:50.204Z,683.09
2022-11-17T01:27:00.204Z,683.18
2022-11-17T01:27:10.204Z,683.12
2022-11-17T01:27:20.206Z,683.17
2022-11-17T01:27:30.208Z,683.13
2022-11-17T01:27:40.205Z,683.17
2022-11-17T01:27:50.212Z,683.24
2022-11-17T01:28:00.212Z,683.24
2022-11-17T01:28:10.209Z,683.40
2022-11-17T01:28:20.237Z,683.32
2022-11-17T01:28:30.211Z,683.41
2022-11-17T01:28:40.212Z,683.39
2022-11-17T01:28:50.211Z,683.40
2022-11-17T01:29:00.213Z,683.51
2022-11-17T01:29:10.217Z,683.51
2022-11-17T01:29:20.217Z,683.58
2022-11-17T01:29:30.216Z,683.62
2022-11-17T01:29:40.215Z,683.60
2022-11-17T01:29:50.214Z,683.66
2022-11-17T01:30:00.217Z,683.72
2022-11-17T01:30:10.216Z,683.78
2022-11-17T01:30:20.219Z,683.71
2022-11-17T01:30:30.222Z,683.75
2022-11-17T01:30:40.221Z,683.78
2022-11-17T01:30:50.224Z,683.84
2022-11-17T01:31:00.225Z,683.82
2022-11-17T01:31:10.226Z,683.78
2022-11-17T01:31:20.228Z,683.85
2022-11-17T01:31:30.238Z,683.86
2022-11-17T01:31:40.223Z,684.03
2022-11-17T01:31:50.223Z,684.07
2022-11-17T01:32:00.278Z,684.12
2022-11-17T01:32:10.227Z,684.06
2022-11-17T01:32:20.224Z,684.05
2022-11-17T01:32:30.227Z,684.14
2022-11-17T01:32:40.229Z,684.16
2022-11-17T01:32:50.230Z,684.16
2022-11-17T01:33:00.229Z,684.26
2022-11-17T01:33:10.227Z,684.23
2022-11-17T01:33:20.231Z,684.20
2022-11-17T01:33:30.238Z,684.32
2022-11-17T01:33:40.231Z,684.31
2022-11-17T01:33:50.233Z,684.24
2022-11-17T01:34:00.233Z,684.18
2022-11-17T01:34:10.233Z,684.39
2022-11-17T01:34:20.233Z,684.39
2022-11-17T01:34:30.236Z,684.44
2022-11-17T01:34:40.234Z,684.33
2022-11-17T01:34:50.235Z,684.35
2022-11-17T01:35:00.272Z,684.43
2022-11-17T01:35:10.263Z,684.50
2022-11-17T01:35:20.242Z,684.59
2022-11-17T01:35:30.237Z,684.58
2022-11-17T01:35:40.244Z,684.50
2022-11-17T01:35:50.238Z,684.39
2022-11-17T01:36:00.237Z,684.49
2022-11-17T01:36:10.240Z,684.65
2022-11-17T01:36:20.243Z,684.81
2022-11-17T01:36:30.240Z,684.71
2022-11-17T01:36:40.241Z,684.76
2022-11-17T01:36:50.242Z,684.73
2022-11-17T01:37:00.243Z,684.74
2022-11-17T01:37:10.244Z,684.77
2022-11-17T01:37:20.244Z,684.69
2022-11-17T01:37:30.246Z,684.83
2022-11-17T01:37:40.246Z,684.87
2022-11-17T01:37:50.246Z,684.92
2022-11-17T01:38:00.247Z,684.90
2022-11-17T01:38:10.259Z,684.88
2022-11-17T01:38:20.250Z,684.91
2022-11-17T01:38:30.248Z,684.94
2022-11-17T01:38:40.250Z,685.04
2022-11-17T01:38:50.249Z,685.00
2022-11-17T01:39:00.253Z,685.01
2022-11-17T01:39:10.254Z,685.01
2022-11-17T01:39:20.248Z,685.04
2022-11-17T01:39:30.262Z,685.08
2022-11-17T01:39:40.250Z,685.11
2022-11-17T01:39:50.252Z,685.09
2022-11-17T01:40:00.252Z,685.09
2022-11-17T01:40:10.347Z,685.12
2022-11-17T01:40:20.254Z,685.29
2022-11-17T01:40:30.260Z,685.34
2022-11-17T01:40:40.261Z,685.39
2022-11-17T01:40:50.257Z,685.41
2022-11-17T01:41:00.260Z,685.40
2022-11-17T01:41:10.262Z,685.35
2022-11-17T01:41:20.260Z,685.30
2022-11-17T01:41:30.259Z,685.46
2022-11-17T01:41:40.261Z,685.52
2022-11-17T01:41:50.265Z,685.63
2022-11-17T01:42:00.263Z,685.79
2022-11-17T01:42:10.261Z,685.72
2022-11-17T01:42:20.262Z,685.68
2022-11-17T01:42:30.264Z,685.72
2022-11-17T01:42:40.259Z,685.79
2022-11-17T01:42:50.265Z,685.84
2022-11-17T01:43:00.268Z,685.59
2022-11-17T01:43:10.264Z,685.71
2022-11-17T01:43:20.266Z,685.84
2022-11-17T01:43:30.278Z,685.94
2022-11-17T01:43:40.265Z,686.11
2022-11-17T01:43:50.269Z,686.18
2022-11-17T01:44:00.268Z,686.12
2022-11-17T01:44:10.279Z,685.99
2022-11-17T01:44:20.270Z,685.97
2022-11-17T01:44:30.270Z,686.00
2022-11-17T01:44:40.273Z,686.03
2022-11-17T01:44:50.269Z,686.05
2022-11-17T01:45:00.275Z,686.07
2022-11-17T01:45:10.272Z,686.21
2022-11-17T01:45:20.272Z,686.15
2022-11-17T01:45:30.275Z,686.23
2022-11-17T01:45:40.274Z,686.22
2022-11-17T01:45:50.275Z,686.33
2022-11-17T01:46:00.279Z,686.32
2022-11-17T01:46:10.275Z,686.23
2022-11-17T01:46:20.277Z,686.36
2022-11-17T01:46:30.280Z,686.46
2022-11-17T01:46:40.278Z,686.58
2022-11-17T01:46:50.278Z,686.55
2022-11-17T01:47:01.209Z,686.48
2022-11-17T01:47:10.282Z,686.35
2022-11-17T01:47:20.284Z,686.34
2022-11-17T01:47:30.281Z,686.67
2022-11-17T01:47:40.289Z,686.61
2022-11-17T01:47:50.286Z,686.67
2022-11-17T01:48:00.284Z,686.74
2022-11-17T01:48:10.286Z,686.84
2022-11-17T01:48:20.270Z,686.84
2022-11-17T01:48:30.288Z,686.94
2022-11-17T01:48:40.290Z,686.89
2022-11-17T01:48:50.288Z,686.85
2022-11-17T01:49:00.293Z,686.87
2022-11-17T01:49:10.290Z,686.96
2022-11-17T01:49:20.292Z,687.01
2022-11-17T01:49:30.292Z,687.04
2022-11-17T01:49:40.289Z,687.01
2022-11-17T01:49:50.290Z,687.01
2022-11-17T01:50:00.293Z,687.04
2022-11-17T01:50:10.280Z,687.04
2022-11-17T01:50:20.293Z,686.97
2022-11-17T01:50:30.294Z,686.89
2022-11-17T01:50:40.293Z,686.91
2022-11-17T01:50:50.298Z,686.98
2022-11-17T01:51:00.300Z,687.02
2022-11-17T01:51:10.299Z,687.01
2022-11-17T01:51:20.307Z,686.90
2022-11-17T01:51:30.285Z,686.85
2022-11-17T01:51:40.299Z,686.96
2022-11-17T01:51:50.298Z,687.05
2022-11-17T01:52:00.310Z,686.94
2022-11-17T01:52:10.301Z,687.05
2022-11-17T01:52:20.302Z,687.19
2022-11-17T01:52:30.304Z,687.23
2022-11-17T01:52:40.303Z,687.21
2022-11-17T01:52:50.304Z,687.31
2022-11-17T01:53:00.309Z,687.25
2022-11-17T01:53:10.301Z,687.29
2022-11-17T01:53:20.303Z,687.14
2022-11-17T01:53:30.306Z,687.05
2022-11-17T01:53:40.309Z,687.04
2022-11-17T01:53:50.311Z,687.26
2022-11-17T01:54:00.317Z,687.28
2022-11-17T01:54:10.315Z,687.24
2022-11-17T01:54:20.310Z,687.18
2022-11-17T01:54:30.310Z,687.15
2022-11-17T01:54:40.315Z,687.16
2022-11-17T01:54:50.313Z,687.19
2022-11-17T01:55:00.313Z,687.34
2022-11-17T01:55:10.314Z,687.23
2022-11-17T01:55:20.312Z,687.04
2022-11-17T01:55:30.323Z,687.01
2022-11-17T01:55:40.317Z,687.14
2022-11-17T01:55:50.328Z,687.27
2022-11-17T01:56:00.341Z,687.26
2022-11-17T01:56:10.315Z,687.22
2022-11-17T01:56:20.317Z,687.06
2022-11-17T01:56:30.317Z,687.09
2022-11-17T01:56:40.317Z,687.28
2022-11-17T01:56:50.318Z,687.33
2022-11-17T01:57:00.321Z,687.29
2022-11-17T01:57:10.321Z,687.36
2022-11-17T01:57:20.321Z,687.40
2022-11-17T01:57:30.321Z,687.41
2022-11-17T01:57:40.326Z,687.44
2022-11-17T01:57:50.328Z,687.46
2022-11-17T01:58:00.333Z,687.34
2022-11-17T01:58:10.325Z,687.25
2022-11-17T01:58:20.325Z,687.29
2022-11-17T01:58:30.331Z,687.45
2022-11-17T01:58:40.327Z,687.44
2022-11-17T01:58:50.326Z,687.49
2022-11-17T01:59:00.329Z,687.42
2022-11-17T01:59:10.330Z,687.46
2022-11-17T01:59:20.329Z,687.48
2022-11-17T01:59:30.330Z,687.52
2022-11-17T01:59:40.331Z,687.61
2022-11-17T01:59:50.330Z,687.66
2022-11-17T02:00:00.335Z,687.58
2022-11-17T02:00:10.337Z,687.71
2022-11-17T02:00:20.334Z,687.72
2022-11-17T02:00:30.336Z,687.71
2022-11-17T02:00:40.339Z,687.70
2022-11-17T02:00:50.341Z,687.87
2022-11-17T02:01:00.346Z,687.85
2022-11-17T02:01:10.407Z,687.80
2022-11-17T02:01:20.406Z,687.88
2022-11-17T02:01:30.413Z,687.89
2022-11-17T02:01:40.378Z,687.84
2022-11-17T02:01:50.463Z,687.94
2022-11-17T02:02:00.396Z,687.94
2022-11-17T02:02:10.344Z,688.07
2022-11-17T02:02:20.349Z,688.00
2022-11-17T02:02:30.346Z,688.05
2022-11-17T02:02:40.353Z,687.99
2022-11-17T02:02:50.348Z,688.04
2022-11-17T02:03:00.350Z,688.06
2022-11-17T02:03:10.351Z,688.22
2022-11-17T02:03:20.351Z,688.29
2022-11-17T02:03:30.355Z,688.35
2022-11-17T02:03:40.357Z,688.46
2022-11-17T02:03:50.352Z,688.45
2022-11-17T02:04:00.353Z,688.39
2022-11-17T02:04:10.359Z,688.37
2022-11-17T02:04:20.356Z,688.22
2022-11-17T02:04:30.356Z,688.38
2022-11-17T02:04:40.357Z,688.45
2022-11-17T02:04:50.361Z,688.49